Moscow, Kansas
Current Conditions -  °F | °C
As of 9:55 AM on Thursday 23 Oct 2014 (Local Time) from KLBL Reporting Station
Overcast Overcast  
Wind Chill: 55°   Ceiling: 200
Heat Index: 55°   Visibility: 0.25mi
Dew Point: 52°   Wind: 3mph
Humidity: 88%   Direction: 10°N
Pressure: 30.13"   Gusts: NA
Location:  37.32°N, 101.21°W
Report Text: KLBL 231455Z AUTO 01003KT 1/4SM OVC002 13/11 A3013 RMK AO1 52017
Loading
Personal Weather Stations






























Interactive Weather Map
Tropical Storm Tracking
New forecast layout! Learn more

10-Day Weather Forecast

Advertisements
Track Severe Weather on mobile